sensor_id;sensor_type;location;lat;lon;timestamp;temperature;humidity
2435;DHT22;1228;51.022;6.764;2023-12-14T00:00:26;8.00;99.90
2435;DHT22;1228;51.022;6.764;2023-12-14T00:02:52;8.10;99.90
2435;DHT22;1228;51.022;6.764;2023-12-14T00:05:17;8.10;99.90
2435;DHT22;1228;51.022;6.764;2023-12-14T00:07:43;8.00;99.90
2435;DHT22;1228;51.022;6.764;2023-12-14T00:10:09;8.10;99.90
2435;DHT22;1228;51.022;6.764;2023-12-14T00:12:34;8.00;99.90
2435;DHT22;1228;51.022;6.764;2023-12-14T00:15:00;8.00;99.90
2435;DHT22;1228;51.022;6.764;2023-12-14T00:17:25;8.00;99.90
2435;DHT22;1228;51.022;6.764;2023-12-14T00:19:51;8.00;99.90
2435;DHT22;1228;51.022;6.764;2023-12-14T00:22:17;8.00;99.90
2435;DHT22;1228;51.022;6.764;2023-12-14T00:24:42;8.00;99.90
2435;DHT22;1228;51.022;6.764;2023-12-14T00:27:08;8.00;99.90
2435;DHT22;1228;51.022;6.764;2023-12-14T00:29:33;8.00;99.90
2435;DHT22;1228;51.022;6.764;2023-12-14T00:31:59;8.10;99.90
2435;DHT22;1228;51.022;6.764;2023-12-14T00:34:25;8.10;99.90
2435;DHT22;1228;51.022;6.764;2023-12-14T00:36:50;8.10;99.90
2435;DHT22;1228;51.022;6.764;2023-12-14T00:39:16;8.20;99.90
2435;DHT22;1228;51.022;6.764;2023-12-14T00:41:41;8.20;99.90
2435;DHT22;1228;51.022;6.764;2023-12-14T00:44:07;8.20;99.90
2435;DHT22;1228;51.022;6.764;2023-12-14T00:46:32;8.30;99.90
2435;DHT22;1228;51.022;6.764;2023-12-14T00:48:58;8.30;99.90
2435;DHT22;1228;51.022;6.764;2023-12-14T00:51:24;8.30;99.90
2435;DHT22;1228;51.022;6.764;2023-12-14T00:53:49;8.30;99.90
2435;DHT22;1228;51.022;6.764;2023-12-14T00:56:15;8.30;99.90
2435;DHT22;1228;51.022;6.764;2023-12-14T00:58:40;8.30;99.90
2435;DHT22;1228;51.022;6.764;2023-12-14T01:01:06;8.30;99.90
2435;DHT22;1228;51.022;6.764;2023-12-14T01:03:32;8.30;99.90
2435;DHT22;1228;51.022;6.764;2023-12-14T01:05:57;8.30;99.90
2435;DHT22;1228;51.022;6.764;2023-12-14T01:08:23;8.30;99.90
2435;DHT22;1228;51.022;6.764;2023-12-14T01:10:49;8.30;99.90
2435;DHT22;1228;51.022;6.764;2023-12-14T01:13:14;8.20;99.90
2435;DHT22;1228;51.022;6.764;2023-12-14T01:15:40;8.30;99.90
2435;DHT22;1228;51.022;6.764;2023-12-14T01:18:05;8.30;99.90
2435;DHT22;1228;51.022;6.764;2023-12-14T01:20:31;8.30;99.90
2435;DHT22;1228;51.022;6.764;2023-12-14T01:22:57;8.30;99.90
2435;DHT22;1228;51.022;6.764;2023-12-14T01:25:22;8.30;99.90
2435;DHT22;1228;51.022;6.764;2023-12-14T01:27:48;8.30;99.90
2435;DHT22;1228;51.022;6.764;2023-12-14T01:30:13;8.40;99.90
2435;DHT22;1228;51.022;6.764;2023-12-14T01:32:39;8.40;99.90
2435;DHT22;1228;51.022;6.764;2023-12-14T01:35:05;8.40;99.90
2435;DHT22;1228;51.022;6.764;2023-12-14T01:37:31;8.50;99.90
2435;DHT22;1228;51.022;6.764;2023-12-14T01:39:56;8.40;99.90
2435;DHT22;1228;51.022;6.764;2023-12-14T01:42:22;8.50;99.90
2435;DHT22;1228;51.022;6.764;2023-12-14T01:44:47;8.50;99.90
2435;DHT22;1228;51.022;6.764;2023-12-14T01:47:13;8.50;99.90
2435;DHT22;1228;51.022;6.764;2023-12-14T01:49:39;8.50;99.90
2435;DHT22;1228;51.022;6.764;2023-12-14T01:52:06;8.40;99.90
2435;DHT22;1228;51.022;6.764;2023-12-14T01:54:32;8.40;99.90
2435;DHT22;1228;51.022;6.764;2023-12-14T01:56:58;8.40;99.90
2435;DHT22;1228;51.022;6.764;2023-12-14T01:59:24;8.40;99.90
2435;DHT22;1228;51.022;6.764;2023-12-14T02:01:54;8.40;99.90
2435;DHT22;1228;51.022;6.764;2023-12-14T02:04:22;8.40;99.90
2435;DHT22;1228;51.022;6.764;2023-12-14T02:06:47;8.30;99.90
2435;DHT22;1228;51.022;6.764;2023-12-14T02:09:13;8.30;99.90
2435;DHT22;1228;51.022;6.764;2023-12-14T02:11:38;8.30;99.90
2435;DHT22;1228;51.022;6.764;2023-12-14T02:14:08;8.30;99.90
2435;DHT22;1228;51.022;6.764;2023-12-14T02:16:34;8.30;99.90
2435;DHT22;1228;51.022;6.764;2023-12-14T02:19:00;8.30;99.90
2435;DHT22;1228;51.022;6.764;2023-12-14T02:21:26;8.20;99.90
2435;DHT22;1228;51.022;6.764;2023-12-14T02:23:52;8.20;99.90
2435;DHT22;1228;51.022;6.764;2023-12-14T02:26:17;8.20;99.90
2435;DHT22;1228;51.022;6.764;2023-12-14T02:28:43;8.20;99.90
2435;DHT22;1228;51.022;6.764;2023-12-14T02:31:08;8.10;99.90
2435;DHT22;1228;51.022;6.764;2023-12-14T02:33:34;8.10;99.90
2435;DHT22;1228;51.022;6.764;2023-12-14T02:36:00;8.00;99.90
2435;DHT22;1228;51.022;6.764;2023-12-14T02:38:26;8.00;99.90
2435;DHT22;1228;51.022;6.764;2023-12-14T02:40:51;7.90;99.90
2435;DHT22;1228;51.022;6.764;2023-12-14T02:43:18;7.90;99.90
2435;DHT22;1228;51.022;6.764;2023-12-14T02:45:44;7.90;99.90
2435;DHT22;1228;51.022;6.764;2023-12-14T02:48:10;7.90;99.90
2435;DHT22;1228;51.022;6.764;2023-12-14T02:50:36;7.90;99.90
2435;DHT22;1228;51.022;6.764;2023-12-14T02:53:01;7.90;99.90
2435;DHT22;1228;51.022;6.764;2023-12-14T02:55:27;7.90;99.90
2435;DHT22;1228;51.022;6.764;2023-12-14T02:57:52;7.90;99.90
2435;DHT22;1228;51.022;6.764;2023-12-14T03:00:18;7.90;99.90
2435;DHT22;1228;51.022;6.764;2023-12-14T03:02:44;7.80;99.90
2435;DHT22;1228;51.022;6.764;2023-12-14T03:05:09;7.80;99.90
2435;DHT22;1228;51.022;6.764;2023-12-14T03:07:35;7.70;99.90
2435;DHT22;1228;51.022;6.764;2023-12-14T03:10:02;7.70;99.90
2435;DHT22;1228;51.022;6.764;2023-12-14T03:12:28;7.70;99.90
2435;DHT22;1228;51.022;6.764;2023-12-14T03:14:54;7.60;99.90
2435;DHT22;1228;51.022;6.764;2023-12-14T03:17:19;7.60;99.90
2435;DHT22;1228;51.022;6.764;2023-12-14T03:19:45;7.60;99.90
2435;DHT22;1228;51.022;6.764;2023-12-14T03:22:11;7.50;99.90
2435;DHT22;1228;51.022;6.764;2023-12-14T03:24:36;7.50;99.90
2435;DHT22;1228;51.022;6.764;2023-12-14T03:27:03;7.50;99.90
2435;DHT22;1228;51.022;6.764;2023-12-14T03:29:29;7.50;99.90
2435;DHT22;1228;51.022;6.764;2023-12-14T03:31:58;7.50;99.90
2435;DHT22;1228;51.022;6.764;2023-12-14T03:34:24;7.50;99.90
2435;DHT22;1228;51.022;6.764;2023-12-14T03:36:50;7.40;99.90
2435;DHT22;1228;51.022;6.764;2023-12-14T03:39:16;7.40;99.90
2435;DHT22;1228;51.022;6.764;2023-12-14T03:41:42;7.40;99.90
2435;DHT22;1228;51.022;6.764;2023-12-14T03:44:08;7.30;99.90
2435;DHT22;1228;51.022;6.764;2023-12-14T03:46:34;7.30;99.90
2435;DHT22;1228;51.022;6.764;2023-12-14T03:49:00;7.30;99.90
2435;DHT22;1228;51.022;6.764;2023-12-14T03:51:26;7.20;99.90
2435;DHT22;1228;51.022;6.764;2023-12-14T03:53:51;7.20;99.90
2435;DHT22;1228;51.022;6.764;2023-12-14T03:56:17;7.20;99.90
2435;DHT22;1228;51.022;6.764;2023-12-14T03:58:42;7.20;99.90
2435;DHT22;1228;51.022;6.764;2023-12-14T04:01:14;7.20;99.90
2435;DHT22;1228;51.022;6.764;2023-12-14T04:03:40;7.20;99.90
2435;DHT22;1228;51.022;6.764;2023-12-14T04:06:06;7.20;99.90
2435;DHT22;1228;51.022;6.764;2023-12-14T04:08:31;7.30;99.90
2435;DHT22;1228;51.022;6.764;2023-12-14T04:10:57;7.20;99.90
2435;DHT22;1228;51.022;6.764;2023-12-14T04:13:22;7.20;99.90
2435;DHT22;1228;51.022;6.764;2023-12-14T04:15:48;7.20;99.90
2435;DHT22;1228;51.022;6.764;2023-12-14T04:18:14;7.20;99.90
2435;DHT22;1228;51.022;6.764;2023-12-14T04:20:39;7.10;99.90
2435;DHT22;1228;51.022;6.764;2023-12-14T04:23:05;7.20;99.90
2435;DHT22;1228;51.022;6.764;2023-12-14T04:25:30;7.10;99.90
2435;DHT22;1228;51.022;6.764;2023-12-14T04:27:56;7.10;99.90
2435;DHT22;1228;51.022;6.764;2023-12-14T04:30:22;7.10;99.90
2435;DHT22;1228;51.022;6.764;2023-12-14T04:32:47;7.20;99.90
2435;DHT22;1228;51.022;6.764;2023-12-14T04:35:13;7.10;99.90
2435;DHT22;1228;51.022;6.764;2023-12-14T04:37:38;7.10;99.90
2435;DHT22;1228;51.022;6.764;2023-12-14T04:40:04;7.10;99.90
2435;DHT22;1228;51.022;6.764;2023-12-14T04:42:30;7.10;99.90
2435;DHT22;1228;51.022;6.764;2023-12-14T04:44:56;7.00;99.90
2435;DHT22;1228;51.022;6.764;2023-12-14T04:47:21;7.00;99.90
2435;DHT22;1228;51.022;6.764;2023-12-14T04:49:47;7.00;99.90
2435;DHT22;1228;51.022;6.764;2023-12-14T04:52:12;6.90;99.90
2435;DHT22;1228;51.022;6.764;2023-12-14T04:54:38;7.00;99.90
2435;DHT22;1228;51.022;6.764;2023-12-14T04:57:05;6.90;99.90
2435;DHT22;1228;51.022;6.764;2023-12-14T04:59:31;6.80;99.90
2435;DHT22;1228;51.022;6.764;2023-12-14T05:01:57;6.90;99.90
2435;DHT22;1228;51.022;6.764;2023-12-14T05:04:22;6.80;99.90
2435;DHT22;1228;51.022;6.764;2023-12-14T05:06:48;6.80;99.90
2435;DHT22;1228;51.022;6.764;2023-12-14T05:09:13;6.90;99.90
2435;DHT22;1228;51.022;6.764;2023-12-14T05:11:40;6.80;99.90
2435;DHT22;1228;51.022;6.764;2023-12-14T05:14:06;6.80;99.90
2435;DHT22;1228;51.022;6.764;2023-12-14T05:16:33;6.90;99.90
2435;DHT22;1228;51.022;6.764;2023-12-14T05:18:59;6.80;99.90
2435;DHT22;1228;51.022;6.764;2023-12-14T05:21:24;6.80;99.90
2435;DHT22;1228;51.022;6.764;2023-12-14T05:23:50;6.80;99.90
2435;DHT22;1228;51.022;6.764;2023-12-14T05:26:16;6.80;99.90
2435;DHT22;1228;51.022;6.764;2023-12-14T05:28:42;6.80;99.90
2435;DHT22;1228;51.022;6.764;2023-12-14T05:31:08;6.90;99.90
2435;DHT22;1228;51.022;6.764;2023-12-14T05:33:37;6.90;99.90
2435;DHT22;1228;51.022;6.764;2023-12-14T05:36:04;6.80;99.90
2435;DHT22;1228;51.022;6.764;2023-12-14T05:38:34;6.80;99.90
2435;DHT22;1228;51.022;6.764;2023-12-14T05:41:00;6.70;99.90
2435;DHT22;1228;51.022;6.764;2023-12-14T05:43:26;6.70;99.90
2435;DHT22;1228;51.022;6.764;2023-12-14T05:45:51;6.70;99.90
2435;DHT22;1228;51.022;6.764;2023-12-14T05:48:17;6.70;99.90
2435;DHT22;1228;51.022;6.764;2023-12-14T05:50:42;6.70;99.90
2435;DHT22;1228;51.022;6.764;2023-12-14T05:53:08;6.70;99.90
2435;DHT22;1228;51.022;6.764;2023-12-14T05:55:33;6.70;99.90
2435;DHT22;1228;51.022;6.764;2023-12-14T05:57:59;6.70;99.90
2435;DHT22;1228;51.022;6.764;2023-12-14T06:00:24;6.70;99.90
2435;DHT22;1228;51.022;6.764;2023-12-14T06:02:50;6.70;99.90
2435;DHT22;1228;51.022;6.764;2023-12-14T06:05:16;6.70;99.90
2435;DHT22;1228;51.022;6.764;2023-12-14T06:07:41;6.70;99.90
2435;DHT22;1228;51.022;6.764;2023-12-14T06:10:07;6.70;99.90
2435;DHT22;1228;51.022;6.764;2023-12-14T06:12:33;6.70;99.90
2435;DHT22;1228;51.022;6.764;2023-12-14T06:14:58;6.70;99.90
2435;DHT22;1228;51.022;6.764;2023-12-14T06:17:24;6.70;99.90
2435;DHT22;1228;51.022;6.764;2023-12-14T06:19:49;6.70;99.90
2435;DHT22;1228;51.022;6.764;2023-12-14T06:22:15;6.70;99.90
2435;DHT22;1228;51.022;6.764;2023-12-14T06:24:41;6.60;99.90
2435;DHT22;1228;51.022;6.764;2023-12-14T06:27:06;6.70;99.90
2435;DHT22;1228;51.022;6.764;2023-12-14T06:29:32;6.60;99.90
2435;DHT22;1228;51.022;6.764;2023-12-14T06:31:57;6.60;99.90
2435;DHT22;1228;51.022;6.764;2023-12-14T06:34:23;6.50;99.90
2435;DHT22;1228;51.022;6.764;2023-12-14T06:36:49;6.50;99.90
2435;DHT22;1228;51.022;6.764;2023-12-14T06:39:14;6.50;99.90
2435;DHT22;1228;51.022;6.764;2023-12-14T06:41:40;6.50;99.90
2435;DHT22;1228;51.022;6.764;2023-12-14T06:44:06;6.50;99.90
2435;DHT22;1228;51.022;6.764;2023-12-14T06:46:34;6.50;99.90
2435;DHT22;1228;51.022;6.764;2023-12-14T06:49:00;6.50;99.90
2435;DHT22;1228;51.022;6.764;2023-12-14T06:51:25;6.40;99.90
2435;DHT22;1228;51.022;6.764;2023-12-14T06:53:51;6.40;99.90
2435;DHT22;1228;51.022;6.764;2023-12-14T06:56:16;6.40;99.90
2435;DHT22;1228;51.022;6.764;2023-12-14T06:58:44;6.40;99.90
2435;DHT22;1228;51.022;6.764;2023-12-14T07:01:13;6.40;99.90
2435;DHT22;1228;51.022;6.764;2023-12-14T07:03:40;6.40;99.90
2435;DHT22;1228;51.022;6.764;2023-12-14T07:06:07;6.40;99.90
2435;DHT22;1228;51.022;6.764;2023-12-14T07:08:33;6.30;99.90
2435;DHT22;1228;51.022;6.764;2023-12-14T07:10:59;6.40;99.90
2435;DHT22;1228;51.022;6.764;2023-12-14T07:13:24;6.30;99.90
2435;DHT22;1228;51.022;6.764;2023-12-14T07:15:51;6.30;99.90
2435;DHT22;1228;51.022;6.764;2023-12-14T07:18:16;6.40;99.90
2435;DHT22;1228;51.022;6.764;2023-12-14T07:20:42;6.40;99.90
2435;DHT22;1228;51.022;6.764;2023-12-14T07:23:07;6.50;99.90
2435;DHT22;1228;51.022;6.764;2023-12-14T07:25:33;6.50;99.90
2435;DHT22;1228;51.022;6.764;2023-12-14T07:27:59;6.40;99.90
2435;DHT22;1228;51.022;6.764;2023-12-14T07:30:24;6.40;99.90
2435;DHT22;1228;51.022;6.764;2023-12-14T07:32:50;6.50;99.90
2435;DHT22;1228;51.022;6.764;2023-12-14T07:35:16;6.40;99.90
2435;DHT22;1228;51.022;6.764;2023-12-14T07:37:42;6.40;99.90
2435;DHT22;1228;51.022;6.764;2023-12-14T07:40:08;6.30;99.90
2435;DHT22;1228;51.022;6.764;2023-12-14T07:42:34;6.20;99.90
2435;DHT22;1228;51.022;6.764;2023-12-14T07:44:59;6.20;99.90
2435;DHT22;1228;51.022;6.764;2023-12-14T07:47:25;6.20;99.90
2435;DHT22;1228;51.022;6.764;2023-12-14T07:49:51;6.30;99.90
2435;DHT22;1228;51.022;6.764;2023-12-14T07:52:16;6.30;99.90
2435;DHT22;1228;51.022;6.764;2023-12-14T07:54:42;6.30;99.90
2435;DHT22;1228;51.022;6.764;2023-12-14T07:57:08;6.20;99.90
2435;DHT22;1228;51.022;6.764;2023-12-14T07:59:33;6.20;99.90
2435;DHT22;1228;51.022;6.764;2023-12-14T08:01:59;6.20;99.90
2435;DHT22;1228;51.022;6.764;2023-12-14T08:04:25;6.10;99.90
2435;DHT22;1228;51.022;6.764;2023-12-14T08:06:50;6.10;99.90
2435;DHT22;1228;51.022;6.764;2023-12-14T08:09:16;6.20;99.90
2435;DHT22;1228;51.022;6.764;2023-12-14T08:11:42;6.10;99.90
2435;DHT22;1228;51.022;6.764;2023-12-14T08:14:07;6.10;99.90
2435;DHT22;1228;51.022;6.764;2023-12-14T08:16:33;6.20;99.90
2435;DHT22;1228;51.022;6.764;2023-12-14T08:18:59;6.20;99.90
2435;DHT22;1228;51.022;6.764;2023-12-14T08:21:24;6.30;99.90
2435;DHT22;1228;51.022;6.764;2023-12-14T08:23:50;6.30;99.90
2435;DHT22;1228;51.022;6.764;2023-12-14T08:26:15;6.20;99.90
2435;DHT22;1228;51.022;6.764;2023-12-14T08:28:41;6.20;99.90
2435;DHT22;1228;51.022;6.764;2023-12-14T08:31:07;6.10;99.90
2435;DHT22;1228;51.022;6.764;2023-12-14T08:33:35;6.10;99.90
2435;DHT22;1228;51.022;6.764;2023-12-14T08:36:00;6.10;99.90
2435;DHT22;1228;51.022;6.764;2023-12-14T08:38:26;6.10;99.90
2435;DHT22;1228;51.022;6.764;2023-12-14T08:40:51;6.00;99.90
2435;DHT22;1228;51.022;6.764;2023-12-14T08:43:17;6.00;99.90
2435;DHT22;1228;51.022;6.764;2023-12-14T08:45:43;6.00;99.90
2435;DHT22;1228;51.022;6.764;2023-12-14T08:48:08;6.00;99.90
2435;DHT22;1228;51.022;6.764;2023-12-14T08:50:34;5.90;99.90
2435;DHT22;1228;51.022;6.764;2023-12-14T08:53:00;5.90;99.90
2435;DHT22;1228;51.022;6.764;2023-12-14T08:55:26;6.00;99.90
2435;DHT22;1228;51.022;6.764;2023-12-14T08:57:52;6.10;99.90
2435;DHT22;1228;51.022;6.764;2023-12-14T09:00:18;6.10;99.90
2435;DHT22;1228;51.022;6.764;2023-12-14T09:02:45;6.10;99.90
2435;DHT22;1228;51.022;6.764;2023-12-14T09:05:12;6.10;99.90
2435;DHT22;1228;51.022;6.764;2023-12-14T09:07:38;6.10;99.90
2435;DHT22;1228;51.022;6.764;2023-12-14T09:10:04;6.00;99.90
2435;DHT22;1228;51.022;6.764;2023-12-14T09:12:30;6.00;99.90
2435;DHT22;1228;51.022;6.764;2023-12-14T09:14:55;6.00;99.90
2435;DHT22;1228;51.022;6.764;2023-12-14T09:17:21;6.00;99.90
2435;DHT22;1228;51.022;6.764;2023-12-14T09:19:47;5.90;99.90
2435;DHT22;1228;51.022;6.764;2023-12-14T09:22:12;5.90;99.90
2435;DHT22;1228;51.022;6.764;2023-12-14T09:24:38;5.90;99.90
2435;DHT22;1228;51.022;6.764;2023-12-14T09:27:03;6.00;99.90
2435;DHT22;1228;51.022;6.764;2023-12-14T09:29:29;6.00;99.90
2435;DHT22;1228;51.022;6.764;2023-12-14T09:31:55;5.90;99.90
2435;DHT22;1228;51.022;6.764;2023-12-14T09:34:21;6.00;99.90
2435;DHT22;1228;51.022;6.764;2023-12-14T09:36:46;6.00;99.90
2435;DHT22;1228;51.022;6.764;2023-12-14T09:39:12;6.00;99.90
2435;DHT22;1228;51.022;6.764;2023-12-14T09:41:38;6.00;99.90
2435;DHT22;1228;51.022;6.764;2023-12-14T09:44:05;6.00;99.90
2435;DHT22;1228;51.022;6.764;2023-12-14T09:46:33;6.00;99.90
2435;DHT22;1228;51.022;6.764;2023-12-14T09:49:00;6.00;99.90
2435;DHT22;1228;51.022;6.764;2023-12-14T09:51:26;6.10;99.90
2435;DHT22;1228;51.022;6.764;2023-12-14T09:53:52;6.00;99.90
2435;DHT22;1228;51.022;6.764;2023-12-14T09:56:26;6.10;99.90
2435;DHT22;1228;51.022;6.764;2023-12-14T09:58:53;6.00;99.90
2435;DHT22;1228;51.022;6.764;2023-12-14T10:01:25;6.10;99.90
2435;DHT22;1228;51.022;6.764;2023-12-14T10:04:12;6.00;99.90
2435;DHT22;1228;51.022;6.764;2023-12-14T10:06:40;6.10;99.90
2435;DHT22;1228;51.022;6.764;2023-12-14T10:09:06;6.00;99.90
2435;DHT22;1228;51.022;6.764;2023-12-14T10:11:41;6.00;99.90
2435;DHT22;1228;51.022;6.764;2023-12-14T10:14:34;6.10;99.90
2435;DHT22;1228;51.022;6.764;2023-12-14T10:17:22;6.10;99.90
2435;DHT22;1228;51.022;6.764;2023-12-14T10:19:53;6.00;99.90
2435;DHT22;1228;51.022;6.764;2023-12-14T10:22:20;5.90;99.90
2435;DHT22;1228;51.022;6.764;2023-12-14T10:24:47;6.00;99.90
2435;DHT22;1228;51.022;6.764;2023-12-14T10:27:15;5.90;99.90
2435;DHT22;1228;51.022;6.764;2023-12-14T10:29:41;5.90;99.90
2435;DHT22;1228;51.022;6.764;2023-12-14T10:32:07;5.90;99.90
2435;DHT22;1228;51.022;6.764;2023-12-14T10:34:35;5.80;99.90
2435;DHT22;1228;51.022;6.764;2023-12-14T10:37:07;5.90;99.90
2435;DHT22;1228;51.022;6.764;2023-12-14T10:39:34;5.90;99.90
2435;DHT22;1228;51.022;6.764;2023-12-14T10:42:03;5.90;99.90
2435;DHT22;1228;51.022;6.764;2023-12-14T10:44:36;5.80;99.90
2435;DHT22;1228;51.022;6.764;2023-12-14T10:47:02;5.80;99.90
2435;DHT22;1228;51.022;6.764;2023-12-14T10:49:29;5.80;99.90
2435;DHT22;1228;51.022;6.764;2023-12-14T10:51:57;5.70;99.90
2435;DHT22;1228;51.022;6.764;2023-12-14T10:54:25;5.80;99.90
2435;DHT22;1228;51.022;6.764;2023-12-14T10:56:55;5.90;99.90
2435;DHT22;1228;51.022;6.764;2023-12-14T10:59:24;6.00;99.90
2435;DHT22;1228;51.022;6.764;2023-12-14T11:01:54;6.00;99.90
2435;DHT22;1228;51.022;6.764;2023-12-14T11:04:23;6.10;99.90
2435;DHT22;1228;51.022;6.764;2023-12-14T11:06:49;6.20;99.90
2435;DHT22;1228;51.022;6.764;2023-12-14T11:09:17;6.20;99.90
2435;DHT22;1228;51.022;6.764;2023-12-14T11:14:19;6.20;99.90
2435;DHT22;1228;51.022;6.764;2023-12-14T11:16:45;6.20;99.90
2435;DHT22;1228;51.022;6.764;2023-12-14T11:21:46;6.20;99.90
2435;DHT22;1228;51.022;6.764;2023-12-14T11:24:12;6.20;99.90
2435;DHT22;1228;51.022;6.764;2023-12-14T11:26:38;6.30;99.90
2435;DHT22;1228;51.022;6.764;2023-12-14T11:29:06;6.30;99.90
2435;DHT22;1228;51.022;6.764;2023-12-14T11:31:32;6.20;99.90
2435;DHT22;1228;51.022;6.764;2023-12-14T11:33:59;6.30;99.90
2435;DHT22;1228;51.022;6.764;2023-12-14T11:36:26;6.30;99.90
2435;DHT22;1228;51.022;6.764;2023-12-14T11:38:52;6.30;99.90
2435;DHT22;1228;51.022;6.764;2023-12-14T11:41:21;6.20;99.90
2435;DHT22;1228;51.022;6.764;2023-12-14T11:43:47;6.30;99.90
2435;DHT22;1228;51.022;6.764;2023-12-14T11:46:14;6.20;99.90
2435;DHT22;1228;51.022;6.764;2023-12-14T11:48:43;6.20;99.90
2435;DHT22;1228;51.022;6.764;2023-12-14T11:51:10;6.20;99.90
2435;DHT22;1228;51.022;6.764;2023-12-14T11:53:36;6.20;99.90
2435;DHT22;1228;51.022;6.764;2023-12-14T11:56:04;6.20;99.90
2435;DHT22;1228;51.022;6.764;2023-12-14T11:58:32;6.10;99.90
2435;DHT22;1228;51.022;6.764;2023-12-14T12:01:17;6.10;99.90
2435;DHT22;1228;51.022;6.764;2023-12-14T12:03:44;6.10;99.90
2435;DHT22;1228;51.022;6.764;2023-12-14T12:06:25;6.20;99.90
2435;DHT22;1228;51.022;6.764;2023-12-14T12:08:53;6.20;99.90
2435;DHT22;1228;51.022;6.764;2023-12-14T12:11:20;6.20;99.90
2435;DHT22;1228;51.022;6.764;2023-12-14T12:13:54;6.30;99.90
2435;DHT22;1228;51.022;6.764;2023-12-14T12:16:20;6.30;99.90
2435;DHT22;1228;51.022;6.764;2023-12-14T12:18:46;6.30;99.90
2435;DHT22;1228;51.022;6.764;2023-12-14T12:21:12;6.40;99.90
2435;DHT22;1228;51.022;6.764;2023-12-14T12:23:38;6.30;99.90
2435;DHT22;1228;51.022;6.764;2023-12-14T12:26:04;6.40;99.90
2435;DHT22;1228;51.022;6.764;2023-12-14T12:28:31;6.40;99.90
2435;DHT22;1228;51.022;6.764;2023-12-14T12:30:57;6.50;99.90
2435;DHT22;1228;51.022;6.764;2023-12-14T12:33:25;6.50;99.90
2435;DHT22;1228;51.022;6.764;2023-12-14T12:35:51;6.60;99.90
2435;DHT22;1228;51.022;6.764;2023-12-14T12:38:17;6.60;99.90
2435;DHT22;1228;51.022;6.764;2023-12-14T12:40:44;6.70;99.90
2435;DHT22;1228;51.022;6.764;2023-12-14T12:43:10;6.70;99.90
2435;DHT22;1228;51.022;6.764;2023-12-14T12:45:37;6.70;99.90
2435;DHT22;1228;51.022;6.764;2023-12-14T12:48:03;6.70;99.90
2435;DHT22;1228;51.022;6.764;2023-12-14T12:50:29;6.60;99.90
2435;DHT22;1228;51.022;6.764;2023-12-14T12:52:55;6.60;99.90
2435;DHT22;1228;51.022;6.764;2023-12-14T12:55:21;6.60;99.90
2435;DHT22;1228;51.022;6.764;2023-12-14T12:57:47;6.50;99.90
2435;DHT22;1228;51.022;6.764;2023-12-14T13:00:13;6.40;99.90
2435;DHT22;1228;51.022;6.764;2023-12-14T13:02:44;6.40;99.90
2435;DHT22;1228;51.022;6.764;2023-12-14T13:05:11;6.40;99.90
2435;DHT22;1228;51.022;6.764;2023-12-14T13:07:37;6.40;99.90
2435;DHT22;1228;51.022;6.764;2023-12-14T13:10:04;6.30;99.90
2435;DHT22;1228;51.022;6.764;2023-12-14T13:12:31;6.30;99.90
2435;DHT22;1228;51.022;6.764;2023-12-14T13:14:56;6.30;99.90
2435;DHT22;1228;51.022;6.764;2023-12-14T13:17:22;6.30;99.90
2435;DHT22;1228;51.022;6.764;2023-12-14T13:19:48;6.30;99.90
2435;DHT22;1228;51.022;6.764;2023-12-14T13:22:14;6.30;99.90
2435;DHT22;1228;51.022;6.764;2023-12-14T13:24:40;6.20;99.90
2435;DHT22;1228;51.022;6.764;2023-12-14T13:27:05;6.20;99.90
2435;DHT22;1228;51.022;6.764;2023-12-14T13:29:31;6.10;99.90
2435;DHT22;1228;51.022;6.764;2023-12-14T13:31:58;6.10;99.90
2435;DHT22;1228;51.022;6.764;2023-12-14T13:34:25;6.10;99.90
2435;DHT22;1228;51.022;6.764;2023-12-14T13:36:50;6.10;99.90
2435;DHT22;1228;51.022;6.764;2023-12-14T13:39:16;6.00;99.90
2435;DHT22;1228;51.022;6.764;2023-12-14T13:41:42;6.10;99.90
2435;DHT22;1228;51.022;6.764;2023-12-14T13:44:07;6.00;99.90
2435;DHT22;1228;51.022;6.764;2023-12-14T13:46:33;6.00;99.90
2435;DHT22;1228;51.022;6.764;2023-12-14T13:48:58;5.90;99.90
2435;DHT22;1228;51.022;6.764;2023-12-14T13:51:25;6.00;99.90
2435;DHT22;1228;51.022;6.764;2023-12-14T13:53:51;6.00;99.90
2435;DHT22;1228;51.022;6.764;2023-12-14T13:56:17;6.10;99.90
2435;DHT22;1228;51.022;6.764;2023-12-14T13:58:43;6.10;99.90
2435;DHT22;1228;51.022;6.764;2023-12-14T14:01:09;6.10;99.90
2435;DHT22;1228;51.022;6.764;2023-12-14T14:03:35;6.10;99.90
2435;DHT22;1228;51.022;6.764;2023-12-14T14:06:03;6.20;99.90
2435;DHT22;1228;51.022;6.764;2023-12-14T14:08:28;6.10;99.90
2435;DHT22;1228;51.022;6.764;2023-12-14T14:10:57;6.00;99.90
2435;DHT22;1228;51.022;6.764;2023-12-14T14:13:22;5.90;99.90
2435;DHT22;1228;51.022;6.764;2023-12-14T14:15:48;5.90;99.90
2435;DHT22;1228;51.022;6.764;2023-12-14T14:18:14;6.00;99.90
2435;DHT22;1228;51.022;6.764;2023-12-14T14:20:39;5.90;99.90
2435;DHT22;1228;51.022;6.764;2023-12-14T14:23:05;5.80;99.90
2435;DHT22;1228;51.022;6.764;2023-12-14T14:25:31;5.80;99.90
2435;DHT22;1228;51.022;6.764;2023-12-14T14:27:56;5.70;99.90
2435;DHT22;1228;51.022;6.764;2023-12-14T14:30:24;5.70;99.90
2435;DHT22;1228;51.022;6.764;2023-12-14T14:32:49;5.70;99.90
2435;DHT22;1228;51.022;6.764;2023-12-14T14:35:15;5.70;99.90
2435;DHT22;1228;51.022;6.764;2023-12-14T14:37:41;5.70;99.90
2435;DHT22;1228;51.022;6.764;2023-12-14T14:40:14;5.60;99.90
2435;DHT22;1228;51.022;6.764;2023-12-14T14:42:40;5.50;99.90
2435;DHT22;1228;51.022;6.764;2023-12-14T14:45:07;5.50;99.90
2435;DHT22;1228;51.022;6.764;2023-12-14T14:47:33;5.50;99.90
2435;DHT22;1228;51.022;6.764;2023-12-14T14:50:00;5.40;99.90
2435;DHT22;1228;51.022;6.764;2023-12-14T14:52:32;5.30;99.90
2435;DHT22;1228;51.022;6.764;2023-12-14T14:54:58;5.30;99.90
2435;DHT22;1228;51.022;6.764;2023-12-14T14:57:24;5.20;99.90
2435;DHT22;1228;51.022;6.764;2023-12-14T14:59:50;5.30;99.90
2435;DHT22;1228;51.022;6.764;2023-12-14T15:02:16;5.30;99.90
2435;DHT22;1228;51.022;6.764;2023-12-14T15:04:41;5.30;99.90
2435;DHT22;1228;51.022;6.764;2023-12-14T15:07:07;5.30;99.90
2435;DHT22;1228;51.022;6.764;2023-12-14T15:09:33;5.20;99.90
2435;DHT22;1228;51.022;6.764;2023-12-14T15:11:59;5.30;99.90
2435;DHT22;1228;51.022;6.764;2023-12-14T15:14:24;5.30;99.90
2435;DHT22;1228;51.022;6.764;2023-12-14T15:16:50;5.20;99.90
2435;DHT22;1228;51.022;6.764;2023-12-14T15:19:15;5.30;99.90
2435;DHT22;1228;51.022;6.764;2023-12-14T15:21:41;5.30;99.90
2435;DHT22;1228;51.022;6.764;2023-12-14T15:24:07;5.30;99.90
2435;DHT22;1228;51.022;6.764;2023-12-14T15:26:33;5.30;99.90
2435;DHT22;1228;51.022;6.764;2023-12-14T15:28:59;5.20;99.90
2435;DHT22;1228;51.022;6.764;2023-12-14T15:31:25;5.20;99.90
2435;DHT22;1228;51.022;6.764;2023-12-14T15:33:50;5.20;99.90
2435;DHT22;1228;51.022;6.764;2023-12-14T15:36:16;5.20;99.90
2435;DHT22;1228;51.022;6.764;2023-12-14T15:38:42;5.20;99.90
2435;DHT22;1228;51.022;6.764;2023-12-14T15:41:11;5.10;99.90
2435;DHT22;1228;51.022;6.764;2023-12-14T15:43:37;5.10;99.90
2435;DHT22;1228;51.022;6.764;2023-12-14T15:46:03;5.10;99.90
2435;DHT22;1228;51.022;6.764;2023-12-14T15:48:29;5.10;99.90
2435;DHT22;1228;51.022;6.764;2023-12-14T15:50:54;5.20;99.90
2435;DHT22;1228;51.022;6.764;2023-12-14T15:53:20;5.20;99.90
2435;DHT22;1228;51.022;6.764;2023-12-14T15:55:45;5.20;99.90
2435;DHT22;1228;51.022;6.764;2023-12-14T15:58:11;5.20;99.90
2435;DHT22;1228;51.022;6.764;2023-12-14T16:00:37;5.20;99.90
2435;DHT22;1228;51.022;6.764;2023-12-14T16:03:04;5.20;99.90
2435;DHT22;1228;51.022;6.764;2023-12-14T16:05:30;5.10;99.90
2435;DHT22;1228;51.022;6.764;2023-12-14T16:07:55;5.00;99.90
2435;DHT22;1228;51.022;6.764;2023-12-14T16:10:21;5.10;99.90
2435;DHT22;1228;51.022;6.764;2023-12-14T16:12:47;5.00;99.90
2435;DHT22;1228;51.022;6.764;2023-12-14T16:15:12;5.00;99.90